A- A+ FrançaisEnglishEspañol中国

Services sur Internet Soldes sur Internet Des idées de cadeaux Météo Météo aéro

La météo à : Autours de vous Tarbes-Lourdes-PyrénéesPerpignan-RivesalterDax-Seyresse Logne-Emerainville

La météo aéronautique pour les pilotes, la préparation du vol avec les METAR (METeorological Aerodrome Report, message d'observation des conditions météorologiques pour l'aviation) et Les TAF (Terminal Aerodrome Forecast : message de prévision à court terme des conditions météorologiques pour l'aviation). Et les autres ressources comme les VAC (Visual Approch Chart) et les NOTAM (Notice To Airman) pour préprer les vols.

Aéroport Visby (Suède) / OACI ESSV/ IATA VBY

L'altitude de l'aéroport Visby est de 50 m = 164 ft. Il est situé à proximité de Visby (Suède). La météo générale à 5 jours est disponible pour Gotlands Län situé à 20.3 km.

METAR de l'aéroport Visby - ESSV

ESSV 071820Z AUTO 31021KT 9999 BKN017/// BKN039/// 04/02 Q0991

Décodage du METAR de l'aéroport Visby (SE)

METAR émis par ESSV le samedi 7 décembre 2019 à 18:20 heure TU. C'est un METAR généré automatiquement, il y a 28 minutes.

La visibilité est de supérieure à 10 km = supérieure à 6.2 sm.

La température est de 4°C = 39 °F et le point rosée est de 2°C = 36 °F . Ce qui correspond à 87% d'humidité relative.

Le QNH est de 991 hPa = 29.26 inHg

Vent de 21 kt = 39 km/h, orienté à 310°.

Nuages : Couverture nuageuse fragmentée à 1700 ft = 520 mètres. Couverture nuageuse fragmentée à 3900 ft = 1190 mètres.

TAF de l'aéroport Visby - ESSV

ESSV 071430Z 0715/0717 28022G33KT 9999 BKN020

ESSV 071430Z 0715/0717 28022G33KT 9999 couverture nuageuse fragmentée à 020

Aéroport à proximité de Visby

Météo générale à 5 jours à Gotlands Län (20.3 km)Aéroport Olanda (86 km)Aéroport Oskarhamn (116 km)Aéroport Borglanda (135 km)Aéroport Stockholm Skavsta (151 km)Aéroport Hultsfred (151 km)Aéroport Norrkoping Kungsangen (160 km)

Vue aérienne de l'aéroport Visby

NOTAM de l'aéroport Visby

Les NOTAM sont fournis sans aucune garantie de leur actualité. Le pilote est le seul responsable de la vérification de sa validité avant de l'utiliser opérationnellement pour préparer un vol ou l'utiliser lors de sa navigation.

Pas de NOTAM

Sources des données